This is the latest recevied weather packets stored in our database for station/object EA4IAJ-12. If no packets are shown the sender has not sent any weather packets the latest 10 day(s).
| Time | Temp. | Humidity | Pressure | Rain* | Wind** | Luminosity | Snow |
|---|---|---|---|---|---|---|---|
| 1777245305 | 16.67° C | 46% | 1000.4 hPa | - | - | - | - |
| 1777244404 | 17.22° C | 46% | 1003.5 hPa | - | - | - | - |
| 1777243504 | 17.22° C | 44% | 1001.8 hPa | - | - | - | - |
| 1777242603 | 18.33° C | 44% | 1006.5 hPa | - | - | - | - |
| 1777241703 | 18.89° C | 42% | 1008.2 hPa | - | - | - | - |
| 1777240802 | 20° C | 41% | 1011.4 hPa | - | - | - | - |
| 1777239914 | 20.56° C | 41% | 1013.3 hPa | - | - | - | - |
| 1777239014 | 21.11° C | 40% | 1014.7 hPa | - | - | - | - |
| 1777238113 | 21.11° C | 39% | 1014.9 hPa | - | - | - | - |
| 1777237212 | 21.11° C | 38% | 1014.5 hPa | - | - | - | - |
| 1777236312 | 21.11° C | 37% | 1014 hPa | - | - | - | - |
| 1777235411 | 20.56° C | 36% | 1013.4 hPa | - | - | - | - |
| 1777234510 | 20.56° C | 35% | 1012.1 hPa | - | - | - | - |
| 1777233610 | 20.56° C | 34% | 1012.7 hPa | - | - | - | - |
| 1777232709 | 20.56° C | 33% | 1012.2 hPa | - | - | - | - |
| 1777231809 | 21.67° C | 32% | 1014.7 hPa | - | - | - | - |
| 1777230908 | 22.22° C | 31% | 1016.7 hPa | - | - | - | - |
| 1777230008 | 22.78° C | 30% | 1018.5 hPa | - | - | - | - |
| 1777229108 | 24.44° C | 30% | 1025.9 hPa | - | - | - | - |
| 1777228207 | 27.78° C | 31% | 1037.3 hPa | - | - | - | - |
| 1777227306 | 30° C | 31% | 1045.1 hPa | - | - | - | - |
| 1777226406 | 31.11° C | 32% | 1050.9 hPa | - | - | - | - |
| 1777225505 | 30.56° C | 32% | 1049.4 hPa | - | - | - | - |
| 1777224605 | 31.11° C | 32% | 1050.3 hPa | - | - | - | - |
| 1777223704 | 33.89° C | 33% | 1061.5 hPa | - | - | - | - |
* Rain since midnight (hover to see other rain measurements)
** Current wind speed in m/s (hover to see current wind gust speed)